Time;durP1;ratioP1;P1;durP2;ratioP2;P2;SDS_P1;SDS_P2;PMS_P1;PMS_P2;Temp;Humidity;BMP_temperature;BMP_pressure;BME280_temperature;BME280_humidity;BME280_pressure;Samples;Min_cycle;Max_cycle;Signal;HPM_P1;HPM_P2
2022/09/26 00:00:10;;;;;;;7.40;5.57;;;;;;;9.55;100.00;100722.25;1977870;28;20068;-74
2022/09/26 00:01:11;;;;;;;9.38;5.65;;;;;;;9.55;100.00;100717.06;1978120;28;20021;-75
2022/09/26 00:02:09;;;;;;;7.50;5.50;;;;;;;9.53;100.00;100710.16;1977256;28;20033;-73
2022/09/26 00:03:09;;;;;;;7.90;5.40;;;;;;;9.53;100.00;100717.13;1977468;28;20512;-75
2022/09/26 00:04:14;;;;;;;13.23;6.22;;;;;;;9.52;100.00;100712.81;1977304;28;20401;-72
2022/09/26 00:05:12;;;;;;;8.90;5.60;;;;;;;9.56;100.00;100718.75;1977471;28;20101;-71
2022/09/26 00:06:11;;;;;;;8.80;5.80;;;;;;;9.56;100.00;100708.31;1977207;28;20029;-74
2022/09/26 00:07:08;;;;;;;7.07;5.65;;;;;;;9.59;100.00;100713.41;1977386;28;20517;-74
2022/09/26 00:08:06;;;;;;;9.05;5.88;;;;;;;9.59;100.00;100708.19;1977888;28;20030;-72
2022/09/26 00:09:04;;;;;;;7.47;5.40;;;;;;;9.62;100.00;100708.09;1977990;28;20489;-71
2022/09/26 00:10:01;;;;;;;5.97;5.38;;;;;;;9.63;100.00;100701.97;1978009;28;20032;-73
2022/09/26 00:11:04;;;;;;;6.75;5.10;;;;;;;9.61;100.00;100695.97;1977913;28;20191;-76
2022/09/26 00:12:03;;;;;;;7.85;5.82;;;;;;;9.62;100.00;100706.31;1978014;28;20056;-74
2022/09/26 00:13:00;;;;;;;6.57;5.50;;;;;;;9.59;100.00;100697.78;1975579;28;20025;-72
2022/09/26 00:14:04;;;;;;;5.82;5.22;;;;;;;9.60;100.00;100697.72;1978054;28;20465;-71
2022/09/26 00:15:01;;;;;;;6.22;5.40;;;;;;;9.60;100.00;100699.47;1977839;28;20025;-71
2022/09/26 00:15:59;;;;;;;6.97;5.25;;;;;;;9.61;100.00;100690.78;1977941;28;20028;-72
2022/09/26 00:16:56;;;;;;;7.00;5.57;;;;;;;9.62;100.00;100695.06;1977798;28;20079;-73
2022/09/26 00:17:54;;;;;;;9.82;5.88;;;;;;;9.62;100.00;100697.66;1977858;28;20033;-72
2022/09/26 00:18:54;;;;;;;11.18;5.88;;;;;;;9.63;100.00;100689.78;1977141;28;20031;-70
2022/09/26 00:19:52;;;;;;;6.13;5.50;;;;;;;9.67;100.00;100690.50;1977407;28;20119;-75
2022/09/26 00:20:50;;;;;;;7.75;5.55;;;;;;;9.65;100.00;100687.13;1976789;28;20030;-73
2022/09/26 00:21:50;;;;;;;7.57;5.80;;;;;;;9.63;100.00;100679.38;1977841;28;20017;-72
2022/09/26 00:22:47;;;;;;;;;;;;;;;9.60;100.00;100682.09;1978371;28;20503;-73
2022/09/26 00:23:47;;;;;;;6.97;5.47;;;;;;;9.59;100.00;100679.53;1977793;28;19909;-75
2022/09/26 00:24:44;;;;;;;7.75;5.70;;;;;;;9.58;100.00;100680.47;1977870;28;20025;-74
2022/09/26 00:25:47;;;;;;;7.10;5.50;;;;;;;9.60;100.00;100678.63;1977926;28;20367;-74
2022/09/26 00:26:45;;;;;;;6.05;5.40;;;;;;;9.61;100.00;100675.97;1977778;28;20025;-75
2022/09/26 00:27:42;;;;;;;6.20;5.60;;;;;;;9.61;100.00;100675.13;1977148;28;20120;-73
2022/09/26 00:28:41;;;;;;;7.13;5.47;;;;;;;9.59;100.00;100671.72;1969425;28;20096;-72
2022/09/26 00:29:40;;;;;;;9.90;5.60;;;;;;;9.61;100.00;100680.34;1976488;28;20036;-74
2022/09/26 00:30:38;;;;;;;8.38;5.63;;;;;;;9.61;100.00;100675.97;1977824;28;20537;-74
2022/09/26 00:31:40;;;;;;;7.45;5.65;;;;;;;9.61;100.00;100669.91;1977627;28;20029;-74
2022/09/26 00:32:38;;;;;;;6.15;5.43;;;;;;;9.62;100.00;100666.41;1977874;28;20486;-73
2022/09/26 00:33:36;;;;;;;7.28;5.50;;;;;;;9.62;100.00;100667.22;1977097;28;20112;-72
2022/09/26 00:34:34;;;;;;;6.45;5.43;;;;;;;9.63;100.00;100665.47;1977174;28;20068;-73
2022/09/26 00:35:31;;;;;;;8.73;5.82;;;;;;;9.62;100.00;100666.41;1977626;28;20036;-71
2022/09/26 00:36:30;;;;;;;7.35;5.95;;;;;;;9.63;100.00;100658.53;1977371;28;20057;-75
2022/09/26 00:37:27;;;;;;;6.38;5.35;;;;;;;9.63;100.00;100660.28;1977657;28;20051;-74
2022/09/26 00:38:25;;;;;;;9.48;5.97;;;;;;;9.64;100.00;100656.75;1977753;28;20392;-74
2022/09/26 00:39:22;;;;;;;7.30;5.20;;;;;;;9.66;100.00;100657.53;1977705;28;20481;-74
2022/09/26 00:40:25;;;;;;;8.32;5.50;;;;;;;9.68;100.00;100653.09;1977740;28;20030;-75
2022/09/26 00:41:23;;;;;;;8.70;5.70;;;;;;;9.72;100.00;100667.69;1977744;28;20025;-73
2022/09/26 00:42:22;;;;;;;6.05;5.45;;;;;;;9.73;100.00;100659.00;1977828;28;20029;-72
2022/09/26 00:43:36;;;;;;;8.73;5.65;;;;;;;9.75;100.00;100649.31;1975338;28;20030;-76
2022/09/26 00:44:49;;;;;;;7.55;5.78;;;;;;;9.75;100.00;100651.94;1977729;28;20489;-74
2022/09/26 00:45:47;;;;;;;12.52;5.78;;;;;;;9.78;100.00;100651.81;1977599;28;20047;-75
2022/09/26 00:46:47;;;;;;;8.23;5.25;;;;;;;9.79;100.00;100643.06;1977063;28;20022;-74
2022/09/26 00:48:01;;;;;;;11.80;5.50;;;;;;;9.79;100.00;100648.28;1977008;28;20053;-68
2022/09/26 00:49:17;;;;;;;6.82;5.55;;;;;;;9.82;100.00;100646.47;1977564;28;20119;-72
2022/09/26 00:50:23;;;;;;;7.15;5.55;;;;;;;9.83;100.00;100648.16;1977666;28;20033;-76
2022/09/26 00:51:21;;;;;;;9.20;5.78;;;;;;;9.85;100.00;100635.94;1977733;28;20192;-70
2022/09/26 00:52:40;;;;;;;6.72;5.60;;;;;;;9.83;100.00;100642.94;1977591;28;20128;-70
2022/09/26 00:53:46;;;;;;;7.32;5.60;;;;;;;9.88;100.00;100640.97;1977685;28;20029;-71
2022/09/26 00:54:50;;;;;;;7.40;5.57;;;;;;;9.88;100.00;100638.38;1977587;28;20029;-70
2022/09/26 00:56:01;;;;;;;8.68;5.20;;;;;;;9.91;100.00;100639.13;1977048;28;20048;-70
2022/09/26 00:57:09;;;;;;;5.90;5.28;;;;;;;9.92;100.00;100627.75;1977163;28;20025;-69
2022/09/26 00:58:29;;;;;;;9.60;5.38;;;;;;;9.93;100.00;100636.44;1977629;28;20044;-75
2022/09/26 00:59:40;;;;;;;6.60;5.63;;;;;;;9.96;100.00;100632.84;1977663;28;20029;-75
2022/09/26 01:00:42;;;;;;;9.13;5.10;;;;;;;9.98;100.00;100634.47;1976724;28;20029;-72
2022/09/26 01:01:40;;;;;;;8.77;5.50;;;;;;;9.97;100.00;100630.19;1977214;28;20033;-74
2022/09/26 01:02:38;;;;;;;8.02;5.22;;;;;;;9.97;100.00;100635.41;1977628;28;20488;-70
2022/09/26 01:03:41;;;;;;;8.68;5.45;;;;;;;9.98;100.00;100629.25;1977639;28;20376;-77
2022/09/26 01:04:41;;;;;;;9.13;4.90;;;;;;;10.00;100.00;100618.78;1977392;28;20112;-74
2022/09/26 01:05:39;;;;;;;8.23;5.03;;;;;;;9.99;100.00;100622.28;1977667;28;20036;-73
2022/09/26 01:06:36;;;;;;;7.78;5.35;;;;;;;10.01;100.00;100618.69;1977663;28;20025;-72
2022/09/26 01:07:34;;;;;;;6.70;4.72;;;;;;;10.01;100.00;100616.09;1977560;28;20382;-75
2022/09/26 01:08:39;;;;;;;8.07;5.30;;;;;;;10.04;100.00;100613.38;1978238;28;20029;-72
2022/09/26 01:09:38;;;;;;;7.75;5.20;;;;;;;10.06;100.00;100605.44;1978005;28;20029;-74
2022/09/26 01:10:36;;;;;;;7.60;5.13;;;;;;;10.03;100.00;100601.22;1978398;28;20504;-74
2022/09/26 01:11:41;;;;;;;6.65;5.28;;;;;;;10.03;100.00;100596.00;1977760;28;20485;-72
2022/09/26 01:12:45;;;;;;;5.97;5.40;;;;;;;10.03;100.00;100609.03;1978015;28;20029;-76
2022/09/26 01:13:43;;;;;;;7.13;5.22;;;;;;;10.01;100.00;100600.44;1975679;28;20037;-72
2022/09/26 01:14:43;;;;;;;10.23;5.47;;;;;;;10.04;100.00;100602.94;1978066;28;20095;-75
2022/09/26 01:15:44;;;;;;;9.48;5.60;;;;;;;10.02;100.00;100591.72;1978130;28;20043;-76
2022/09/26 01:16:47;;;;;;;10.10;4.90;;;;;;;10.00;100.00;100598.78;1978222;28;20056;-74
2022/09/26 01:17:45;;;;;;;10.50;5.03;;;;;;;10.02;100.00;100589.09;1977963;28;20033;-75
2022/09/26 01:18:44;;;;;;;10.55;5.22;;;;;;;10.04;100.00;100591.66;1977982;28;20547;-73
2022/09/26 01:20:08;;;;;;;9.32;5.20;;;;;;;10.03;100.00;100589.97;1977071;28;20381;-75
2022/09/26 01:21:32;;;;;;;6.80;4.68;;;;;;;10.03;100.00;100588.19;1971979;28;20025;-72
2022/09/26 01:23:27;;;;;;;6.50;4.80;;;;;;;10.04;100.00;100583.81;1977427;28;20029;-71
2022/09/26 01:24:36;;;;;;;9.15;5.10;;;;;;;10.02;100.00;100576.06;1970097;28;20145;-74
2022/09/26 01:26:22;;;;;;;9.52;4.57;;;;;;;10.05;100.00;100578.53;1977822;28;20095;-71
2022/09/26 01:27:40;;;;;;;7.97;5.15;;;;;;;10.06;100.00;100571.56;1978273;28;20025;-75
2022/09/26 01:29:08;;;;;;;6.72;4.85;;;;;;;10.10;100.00;100572.28;1977884;28;20083;-71
2022/09/26 01:30:27;;;;;;;6.20;4.30;;;;;;;10.07;100.00;100573.25;1978257;28;20029;-77
2022/09/26 01:32:47;;;;;;;7.45;4.57;;;;;;;10.09;100.00;100568.00;1977940;28;20027;-74
2022/09/26 01:33:34;;;;;;;7.55;4.05;;;;;;;10.10;100.00;100572.28;1977998;28;20045;-72
2022/09/26 01:34:46;;;;;;;4.80;4.25;;;;;;;10.07;100.00;100562.84;1977763;28;20489;-77
2022/09/26 01:35:49;;;;;;;7.75;4.50;;;;;;;10.10;100.00;100556.63;1978028;28;20139;-76
2022/09/26 01:37:50;;;;;;;7.80;4.40;;;;;;;10.09;100.00;100549.72;1976545;28;20069;-72
2022/09/26 01:39:08;;;;;;;8.88;4.28;;;;;;;10.10;100.00;100546.22;1984642;28;20087;-74
2022/09/26 01:40:28;;;;;;;6.40;3.78;;;;;;;10.08;100.00;100545.41;1981583;28;20055;-68
2022/09/26 01:42:33;;;;;;;5.35;4.30;;;;;;;10.11;100.00;100537.47;1977433;28;20115;-69
2022/09/26 01:44:02;;;;;;;7.35;4.15;;;;;;;10.09;100.00;100539.31;1973121;28;20047;-71
2022/09/26 01:45:12;;;;;;;9.85;4.00;;;;;;;10.09;100.00;100539.31;1977530;28;20033;-75
2022/09/26 01:46:56;;;;;;;8.52;3.97;;;;;;;10.10;100.00;100530.56;1977362;28;20021;-72
2022/09/26 01:48:15;;;;;;;8.10;3.72;;;;;;;10.10;100.00;100530.56;1977520;28;20086;-73
2022/09/26 01:49:54;;;;;;;4.88;3.83;;;;;;;10.13;100.00;100520.00;1976688;28;20725;-69
2022/09/26 01:51:15;;;;;;;5.93;4.00;;;;;;;10.14;100.00;100522.53;1976709;28;20037;-70
2022/09/26 01:52:30;;;;;;;8.68;4.22;;;;;;;10.14;100.00;100521.69;1977341;28;20040;-71
2022/09/26 01:53:48;;;;;;;4.28;3.33;;;;;;;10.14;100.00;100519.06;1977471;28;20235;-69
2022/09/26 01:55:04;;;;;;;10.07;4.00;;;;;;;10.13;100.00;100517.38;1977357;28;20405;-71
2022/09/26 01:56:10;;;;;;;8.00;3.78;;;;;;;10.11;100.00;100512.25;1977409;28;20072;-69
2022/09/26 01:57:18;;;;;;;5.85;4.10;;;;;;;10.11;100.00;100514.00;1977412;28;20401;-74
2022/09/26 01:58:32;;;;;;;4.90;3.65;;;;;;;10.10;100.00;100509.69;1977242;28;20532;-70
2022/09/26 01:59:53;;;;;;;9.23;3.88;;;;;;;10.08;100.00;100507.16;1977002;28;20034;-77
2022/09/26 02:00:58;;;;;;;6.35;3.38;;;;;;;10.07;100.00;100499.41;1977730;28;20056;-74
2022/09/26 02:02:06;;;;;;;6.28;3.75;;;;;;;10.07;100.00;100495.06;1977773;28;20476;-74
2022/09/26 02:03:10;;;;;;;6.68;4.03;;;;;;;10.08;100.00;100496.72;1976774;28;20022;-70
2022/09/26 02:04:20;;;;;;;5.82;3.78;;;;;;;10.04;100.00;100496.03;1977418;28;20535;-74
2022/09/26 02:05:34;;;;;;;5.55;3.70;;;;;;;10.07;100.00;100488.97;1977717;28;20044;-73
2022/09/26 02:07:07;;;;;;;6.68;3.70;;;;;;;10.06;100.00;100488.13;1976656;28;20545;-74
2022/09/26 02:08:28;;;;;;;9.95;3.50;;;;;;;10.01;100.00;100488.34;1977163;28;20029;-74
2022/09/26 02:09:37;;;;;;;5.20;3.30;;;;;;;9.99;100.00;100482.34;1977250;28;20033;-71
2022/09/26 02:10:48;;;;;;;4.75;3.42;;;;;;;9.99;100.00;100471.09;1977438;28;20025;-72
2022/09/26 02:11:57;;;;;;;6.50;3.63;;;;;;;9.97;100.00;100476.38;1977867;28;20028;-73
2022/09/26 02:13:21;;;;;;;5.40;3.70;;;;;;;9.98;100.00;100479.81;1976034;28;20585;-76
2022/09/26 02:14:30;;;;;;;6.75;3.40;;;;;;;9.98;100.00;100469.38;1976653;28;20587;-75
2022/09/26 02:15:31;;;;;;;4.93;3.40;;;;;;;9.99;100.00;100476.31;1976871;28;20035;-71
2022/09/26 02:16:46;;;;;;;5.45;3.55;;;;;;;9.98;100.00;100469.38;1977366;28;20482;-71
2022/09/26 02:18:02;;;;;;;7.22;3.63;;;;;;;9.96;100.00;100472.06;1977246;28;20033;-72
2022/09/26 02:19:15;;;;;;;7.07;3.85;;;;;;;9.94;100.00;100476.50;1977505;28;20025;-70
2022/09/26 02:20:28;;;;;;;6.47;3.60;;;;;;;9.89;100.00;100468.88;1977551;28;20028;-75
2022/09/26 02:21:28;;;;;;;5.00;3.30;;;;;;;9.88;100.00;100466.34;1977832;28;20037;-75
2022/09/26 02:22:33;;;;;;;5.70;3.78;;;;;;;9.88;100.00;100458.53;1977653;28;20075;-74
2022/09/26 02:23:31;;;;;;;9.10;3.50;;;;;;;9.88;100.00;100458.53;1977385;28;20025;-70
2022/09/26 02:24:31;;;;;;;6.45;3.67;;;;;;;9.90;100.00;100459.31;1976618;28;20404;-72
2022/09/26 02:25:30;;;;;;;8.40;3.80;;;;;;;9.89;100.00;100458.47;1976947;28;20040;-69
2022/09/26 02:26:28;;;;;;;7.82;3.42;;;;;;;9.92;100.00;100460.06;1977471;28;20036;-77
2022/09/26 02:27:27;;;;;;;8.07;3.30;;;;;;;9.92;100.00;100454.88;1977475;28;20044;-70
2022/09/26 02:28:24;;;;;;;5.47;3.60;;;;;;;9.90;100.00;100451.50;1976730;28;20071;-75
2022/09/26 02:29:22;;;;;;;6.13;3.35;;;;;;;9.91;100.00;100445.38;1976785;28;20101;-69
2022/09/26 02:30:20;;;;;;;6.25;3.30;;;;;;;9.94;100.00;100441.78;1977744;28;20473;-73
2022/09/26 02:31:24;;;;;;;6.95;3.08;;;;;;;9.90;100.00;100446.28;1977299;28;20036;-71
2022/09/26 02:32:30;;;;;;;8.20;3.40;;;;;;;9.92;100.00;100444.44;1977717;28;20029;-74
2022/09/26 02:33:30;;;;;;;10.45;3.63;;;;;;;9.90;100.00;100441.94;1977370;28;20047;-77
2022/09/26 02:34:28;;;;;;;7.00;3.10;;;;;;;9.90;100.00;100446.28;1977788;28;20033;-73
2022/09/26 02:36:43;;;;;;;6.32;3.35;;;;;;;9.89;100.00;100442.00;1977230;28;20050;-70
2022/09/26 02:37:41;;;;;;;9.90;3.38;;;;;;;9.95;100.00;100439.09;1977460;28;20119;-74
2022/09/26 02:38:38;;;;;;;5.63;3.17;;;;;;;9.96;100.00;100427.75;1977254;28;20112;-69
2022/09/26 02:39:36;;;;;;;4.72;3.35;;;;;;;9.90;100.00;100430.66;1977403;28;20025;-72
2022/09/26 02:40:50;;;;;;;3.80;2.78;;;;;;;9.90;100.00;100428.91;1977203;28;20079;-72
2022/09/26 02:42:06;;;;;;;5.95;3.05;;;;;;;9.92;100.00;100429.66;1977213;28;20076;-72
2022/09/26 02:43:18;;;;;;;7.72;3.30;;;;;;;9.90;100.00;100433.25;1975070;28;20481;-76
2022/09/26 02:44:59;;;;;;;8.35;3.10;;;;;;;9.91;100.00;100424.50;1978049;28;20491;-76
2022/09/26 02:46:40;;;;;;;6.88;3.40;;;;;;;9.92;100.00;100423.59;1978864;28;20025;-75
2022/09/26 02:47:50;;;;;;;;;;;;;;;9.88;100.00;100432.47;1979447;28;20034;-75
2022/09/26 02:49:24;;;;;;;4.93;2.85;;;;;;;9.88;100.00;100427.25;1978679;28;19909;-70
2022/09/26 02:50:52;;;;;;;7.97;3.30;;;;;;;9.91;100.00;100421.91;1978806;28;20029;-72
2022/09/26 02:52:23;;;;;;;5.93;3.13;;;;;;;9.88;100.00;100422.03;1978933;28;20047;-75
2022/09/26 02:53:53;;;;;;;7.00;3.58;;;;;;;9.89;100.00;100426.38;1977912;28;20467;-75
2022/09/26 02:55:20;;;;;;;5.45;3.22;;;;;;;9.88;100.00;100422.91;1973664;28;20037;-72
2022/09/26 02:57:21;;;;;;;7.60;3.38;;;;;;;9.88;100.00;100414.22;1978544;28;20396;-75
2022/09/26 02:58:58;;;;;;;6.25;3.03;;;;;;;9.85;100.00;100410.00;1978480;28;20072;-76
2022/09/26 03:00:21;;;;;;;5.22;2.80;;;;;;;9.88;100.00;100411.63;1978494;28;20032;-70
2022/09/26 03:02:06;;;;;;;6.93;2.90;;;;;;;9.87;100.00;100404.72;1978374;28;20105;-74
2022/09/26 03:03:23;;;;;;;6.28;3.13;;;;;;;9.87;100.00;100399.50;1978704;28;20036;-75
2022/09/26 03:04:39;;;;;;;5.28;3.15;;;;;;;9.87;100.00;100399.50;1978652;28;20032;-75
2022/09/26 03:05:47;;;;;;;3.85;2.88;;;;;;;9.86;100.00;100396.03;1978565;28;20502;-73
2022/09/26 03:06:54;;;;;;;4.97;3.42;;;;;;;9.89;100.00;100392.47;1978415;28;20075;-74
2022/09/26 03:08:10;;;;;;;5.63;2.83;;;;;;;9.86;100.00;100385.63;1978471;28;20045;-74
2022/09/26 03:09:11;;;;;;;5.43;3.53;;;;;;;9.86;100.00;100392.63;1978546;28;20037;-71
2022/09/26 03:10:12;;;;;;;8.60;3.50;;;;;;;9.85;100.00;100388.31;1977870;28;20021;-76
2022/09/26 03:11:16;;;;;;;8.63;3.17;;;;;;;9.87;100.00;100389.09;1977922;28;20033;-68
2022/09/26 03:12:15;;;;;;;6.00;2.80;;;;;;;9.85;100.00;100383.13;1978444;28;20454;-70
2022/09/26 03:13:17;;;;;;;4.35;3.05;;;;;;;9.86;100.00;100387.41;1975468;28;20021;-68
2022/09/26 03:14:20;;;;;;;4.40;2.97;;;;;;;9.89;100.00;100376.84;1977879;28;20485;-72
2022/09/26 03:15:20;;;;;;;5.95;2.85;;;;;;;9.92;100.00;100379.28;1978553;28;20031;-74
2022/09/26 03:16:20;;;;;;;6.85;3.05;;;;;;;9.91;100.00;100375.84;1978456;28;20039;-75
2022/09/26 03:17:20;;;;;;;5.32;2.90;;;;;;;9.94;100.00;100379.22;1978455;28;20033;-69
2022/09/26 03:18:28;;;;;;;6.35;3.00;;;;;;;9.88;100.00;100377.72;1978400;28;20068;-74
2022/09/26 03:19:44;;;;;;;5.47;3.22;;;;;;;9.91;100.00;100373.25;1978516;28;20550;-72
2022/09/26 03:20:43;;;;;;;8.27;2.97;;;;;;;9.94;100.00;100379.22;1978474;28;20066;-75
2022/09/26 03:21:44;;;;;;;5.20;3.00;;;;;;;9.91;100.00;100370.63;1978557;28;20489;-75
2022/09/26 03:22:43;;;;;;;5.07;2.78;;;;;;;9.90;100.00;100370.69;1977738;28;20492;-74
2022/09/26 03:23:41;;;;;;;5.60;3.10;;;;;;;9.90;100.00;100365.50;1977884;28;20025;-68
2022/09/26 03:24:43;;;;;;;3.63;2.53;;;;;;;9.93;100.00;100367.97;1978326;28;20033;-73
2022/09/26 03:25:40;;;;;;;5.38;3.03;;;;;;;9.90;100.00;100368.09;1978369;28;20481;-65
2022/09/26 03:26:40;;;;;;;6.30;3.05;;;;;;;9.90;100.00;100368.94;1978348;28;20033;-74
2022/09/26 03:27:44;;;;;;;7.60;3.10;;;;;;;9.94;100.00;100364.41;1978360;28;20557;-74
2022/09/26 03:28:43;;;;;;;4.38;2.90;;;;;;;9.94;100.00;100366.19;1977610;28;20034;-75
2022/09/26 03:29:40;;;;;;;5.47;3.20;;;;;;;9.89;100.00;100358.59;1977797;28;20479;-73
2022/09/26 03:30:38;;;;;;;6.20;2.90;;;;;;;9.90;100.00;100363.75;1978160;28;20037;-73
2022/09/26 03:31:36;;;;;;;4.70;2.70;;;;;;;9.89;100.00;100358.59;1978328;28;20366;-70
2022/09/26 03:32:33;;;;;;;8.20;3.10;;;;;;;9.91;100.00;100362.81;1978175;28;20087;-73
2022/09/26 03:33:31;;;;;;;6.45;2.70;;;;;;;9.93;100.00;100354.94;1978346;28;20537;-69
2022/09/26 03:34:28;;;;;;;5.18;2.60;;;;;;;9.94;100.00;100350.53;1978215;28;20036;-73
2022/09/26 03:35:31;;;;;;;5.45;3.13;;;;;;;9.91;100.00;100354.13;1978285;28;20547;-75
2022/09/26 03:36:29;;;;;;;7.55;2.72;;;;;;;9.89;100.00;100350.78;1978089;28;20576;-76
2022/09/26 03:37:26;;;;;;;5.72;2.65;;;;;;;9.90;100.00;100350.72;1978176;28;20033;-74
2022/09/26 03:38:25;;;;;;;4.75;2.55;;;;;;;9.91;100.00;100347.19;1978293;28;20481;-73
2022/09/26 03:39:22;;;;;;;7.10;2.75;;;;;;;9.92;100.00;100340.19;1978128;28;20029;-75
2022/09/26 03:40:20;;;;;;;4.50;2.60;;;;;;;9.94;100.00;100348.78;1978323;28;20025;-68
2022/09/26 03:41:18;;;;;;;5.05;2.50;;;;;;;9.94;100.00;100338.34;1978055;28;20505;-72
2022/09/26 03:42:16;;;;;;;5.15;2.90;;;;;;;9.96;100.00;100336.50;1978320;28;20060;-67
2022/09/26 03:43:13;;;;;;;6.95;3.00;;;;;;;9.95;100.00;100337.44;1975102;28;20060;-70
2022/09/26 03:44:11;;;;;;;4.93;2.55;;;;;;;9.99;100.00;100336.38;1977673;28;20146;-69
2022/09/26 03:45:09;;;;;;;9.80;3.00;;;;;;;9.98;100.00;100334.69;1978104;28;20077;-69
2022/09/26 03:46:07;;;;;;;3.55;2.53;;;;;;;9.99;100.00;100331.16;1978084;28;20021;-68
2022/09/26 03:47:05;;;;;;;7.03;2.80;;;;;;;9.99;100.00;100325.94;1977561;28;20013;-69
2022/09/26 03:48:05;;;;;;;6.13;2.50;;;;;;;9.99;100.00;100325.94;1977638;28;20493;-70
2022/09/26 03:49:02;;;;;;;6.78;2.95;;;;;;;9.99;100.00;100325.94;1978169;28;20092;-73
2022/09/26 03:50:00;;;;;;;8.10;2.60;;;;;;;10.02;100.00;100323.19;1978027;28;20488;-70
2022/09/26 03:51:03;;;;;;;6.75;2.58;;;;;;;10.01;100.00;100318.03;1977994;28;20053;-68
2022/09/26 03:52:02;;;;;;;6.28;2.78;;;;;;;9.98;100.00;100319.03;1978045;28;20037;-69
2022/09/26 03:53:00;;;;;;;6.20;2.60;;;;;;;9.96;100.00;100320.88;1978142;28;20040;-68
2022/09/26 03:53:58;;;;;;;4.93;2.60;;;;;;;9.97;100.00;100327.78;1978025;28;20420;-68
2022/09/26 03:54:56;;;;;;;5.43;2.45;;;;;;;9.94;100.00;100325.31;1978119;28;20060;-69
2022/09/26 03:56:01;;;;;;;5.22;2.90;;;;;;;9.91;100.00;100323.72;1978124;28;20033;-70
2022/09/26 03:56:59;;;;;;;3.83;2.53;;;;;;;9.85;100.00;100318.78;1978034;28;20108;-72
2022/09/26 03:58:01;;;;;;;8.85;2.40;;;;;;;9.85;100.00;100317.97;1977356;28;20378;-69
2022/09/26 03:58:59;;;;;;;3.08;2.60;;;;;;;9.84;100.00;100311.88;1977464;28;20320;-69
2022/09/26 03:59:56;;;;;;;9.02;2.55;;;;;;;9.79;100.00;100312.09;1977980;28;20025;-70
2022/09/26 04:00:54;;;;;;;4.32;2.88;;;;;;;9.83;100.00;100309.34;1978095;28;20097;-72
2022/09/26 04:01:51;;;;;;;6.47;2.50;;;;;;;9.84;100.00;100305.81;1978025;28;20017;-70
2022/09/26 04:02:49;;;;;;;5.93;2.85;;;;;;;9.82;100.00;100310.28;1978150;28;20024;-71
2022/09/26 04:03:48;;;;;;;4.43;2.50;;;;;;;9.80;100.00;100299.94;1977974;28;20025;-74
2022/09/26 04:04:46;;;;;;;6.60;2.83;;;;;;;9.79;100.00;100300.84;1978064;28;20101;-68
2022/09/26 04:05:43;;;;;;;7.15;2.47;;;;;;;9.79;100.00;100299.06;1978139;28;20275;-66
2022/09/26 04:06:43;;;;;;;6.20;3.00;;;;;;;9.82;100.00;100298.06;1977898;28;20106;-69
2022/09/26 04:07:43;;;;;;;4.55;2.50;;;;;;;9.78;100.00;100289.56;1976032;28;20124;-67
2022/09/26 04:08:41;;;;;;;6.75;2.60;;;;;;;9.78;100.00;100292.19;1969466;28;20044;-72
2022/09/26 04:09:39;;;;;;;6.97;2.90;;;;;;;9.74;100.00;100285.44;1976999;28;20458;-68
2022/09/26 04:10:36;;;;;;;6.72;2.95;;;;;;;9.73;100.00;100288.97;1977894;28;20101;-70
2022/09/26 04:11:34;;;;;;;5.82;2.78;;;;;;;9.72;100.00;100282.03;1978075;28;20038;-72
2022/09/26 04:12:31;;;;;;;6.53;2.17;;;;;;;9.73;100.00;100285.50;1977900;28;20057;-77
2022/09/26 04:13:30;;;;;;;5.15;2.58;;;;;;;9.72;100.00;100281.22;1975034;28;20049;-72
2022/09/26 04:14:28;;;;;;;6.57;2.20;;;;;;;9.71;100.00;100280.34;1977235;28;20033;-70
2022/09/26 04:15:27;;;;;;;5.90;2.30;;;;;;;9.68;100.00;100275.28;1984574;28;20024;-70
2022/09/26 04:16:25;;;;;;;6.70;2.88;;;;;;;9.69;100.00;100271.78;1978336;28;20400;-69
2022/09/26 04:17:22;;;;;;;8.88;2.78;;;;;;;9.66;100.00;100266.72;1978117;28;20049;-73
2022/09/26 04:18:19;;;;;;;6.40;2.47;;;;;;;9.66;100.00;100267.53;1978103;28;20040;-71
2022/09/26 04:19:18;;;;;;;6.45;2.30;;;;;;;9.67;100.00;100268.41;1977914;28;20025;-70
2022/09/26 04:20:15;;;;;;;6.50;2.47;;;;;;;9.65;100.00;100262.44;1978042;28;20038;-72
2022/09/26 04:21:13;;;;;;;8.18;2.40;;;;;;;9.65;100.00;100259.81;1977954;28;20540;-73
2022/09/26 04:22:11;;;;;;;5.07;2.42;;;;;;;9.64;100.00;100255.50;1977168;28;20071;-70
2022/09/26 04:23:09;;;;;;;3.80;2.40;;;;;;;9.63;100.00;100256.44;1977236;28;20037;-69
2022/09/26 04:24:13;;;;;;;10.18;3.00;;;;;;;9.63;100.00;100251.22;1977835;28;20128;-71
2022/09/26 04:25:10;;;;;;;6.97;2.40;;;;;;;9.62;100.00;100250.38;1978052;28;20496;-72
2022/09/26 04:26:17;;;;;;;4.65;2.67;;;;;;;9.63;100.00;100252.09;1977962;28;20029;-71
2022/09/26 04:27:14;;;;;;;5.00;2.67;;;;;;;9.63;100.00;100252.09;1977708;28;20033;-69
2022/09/26 04:28:12;;;;;;;7.38;2.13;;;;;;;9.64;100.00;100253.75;1977828;28;20581;-69
2022/09/26 04:29:10;;;;;;;8.73;2.50;;;;;;;9.62;100.00;100244.34;1977882;28;20504;-70
2022/09/26 04:30:08;;;;;;;5.38;2.70;;;;;;;9.62;100.00;100245.16;1977131;28;20022;-68
2022/09/26 04:31:09;;;;;;;5.78;2.60;;;;;;;9.63;100.00;100243.41;1977177;28;20021;-70
2022/09/26 04:32:06;;;;;;;4.43;2.22;;;;;;;9.62;100.00;100233.91;1977185;28;20443;-73
2022/09/26 04:33:04;;;;;;;4.40;2.33;;;;;;;9.64;100.00;100242.47;1977046;28;20025;-72
2022/09/26 04:34:05;;;;;;;5.97;2.67;;;;;;;9.63;100.00;100235.59;1977787;28;20104;-70
2022/09/26 04:35:03;;;;;;;4.15;2.28;;;;;;;9.61;100.00;100232.25;1977807;28;20040;-77
2022/09/26 04:36:04;;;;;;;4.82;2.53;;;;;;;9.62;100.00;100233.91;1977884;28;20053;-74
2022/09/26 04:37:01;;;;;;;3.60;2.50;;;;;;;9.63;100.00;100233.00;1976877;28;20099;-72
2022/09/26 04:37:59;;;;;;;6.63;2.67;;;;;;;9.61;100.00;100233.06;1977229;28;20513;-73
2022/09/26 04:38:59;;;;;;;3.15;2.15;;;;;;;9.60;100.00;100230.53;1977211;28;20032;-75
2022/09/26 04:39:59;;;;;;;6.05;2.40;;;;;;;9.64;100.00;100232.06;1977139;28;20021;-68
2022/09/26 04:41:10;;;;;;;3.03;2.03;;;;;;;9.59;100.00;100226.25;1977851;28;20025;-75
2022/09/26 04:42:07;;;;;;;5.00;2.35;;;;;;;9.59;100.00;100228.84;1977693;28;20157;-71
2022/09/26 04:43:05;;;;;;;9.30;2.50;;;;;;;9.60;100.00;100222.72;1975415;28;20029;-68
2022/09/26 04:44:02;;;;;;;7.57;2.58;;;;;;;9.59;100.00;100221.03;1977747;28;20032;-73
2022/09/26 04:45:00;;;;;;;5.65;2.55;;;;;;;9.63;100.00;100222.56;1977724;28;20025;-70
2022/09/26 04:45:58;;;;;;;7.78;2.55;;;;;;;9.64;100.00;100211.22;1976924;28;20025;-67
2022/09/26 04:46:55;;;;;;;6.63;2.45;;;;;;;9.62;100.00;100213.06;1977119;28;20016;-72
2022/09/26 04:47:52;;;;;;;4.82;2.60;;;;;;;9.65;100.00;100203.34;1977010;28;20121;-70
2022/09/26 04:48:53;;;;;;;6.43;2.45;;;;;;;9.64;100.00;100200.81;1977134;28;20507;-70
2022/09/26 04:49:50;;;;;;;8.90;2.35;;;;;;;9.66;100.00;100191.97;1977674;28;20561;-69
2022/09/26 04:50:48;;;;;;;5.75;2.50;;;;;;;9.66;100.00;100193.78;1977750;28;20045;-69
2022/09/26 04:51:46;;;;;;;5.60;2.28;;;;;;;9.66;100.00;100184.16;1977637;28;20059;-73
2022/09/26 04:52:44;;;;;;;7.10;2.55;;;;;;;9.67;100.00;100174.59;1977622;28;20021;-72
2022/09/26 04:53:42;;;;;;;6.93;2.75;;;;;;;9.71;100.00;100180.53;1977679;28;20072;-72
2022/09/26 04:54:39;;;;;;;4.32;2.28;;;;;;;9.67;100.00;100172.00;1977563;28;20036;-69
2022/09/26 04:55:38;;;;;;;7.43;2.55;;;;;;;9.70;100.00;100169.25;1977595;28;20036;-73
2022/09/26 04:56:35;;;;;;;5.28;2.30;;;;;;;9.66;100.00;100160.72;1977449;28;20107;-72
2022/09/26 04:57:33;;;;;;;5.60;2.60;;;;;;;9.68;100.00;100154.63;1977037;28;20069;-76
2022/09/26 04:58:31;;;;;;;3.58;2.38;;;;;;;9.68;100.00;100170.25;1976906;28;20028;-69
2022/09/26 04:59:28;;;;;;;5.50;2.35;;;;;;;9.69;100.00;100180.59;1977545;28;20045;-70
2022/09/26 05:00:29;;;;;;;5.60;2.60;;;;;;;9.64;100.00;100173.00;1977468;28;20396;-70
2022/09/26 05:01:26;;;;;;;3.50;2.58;;;;;;;9.68;100.00;100172.84;1977609;28;20094;-71
2022/09/26 05:02:24;;;;;;;3.88;2.78;;;;;;;9.65;100.00;100166.03;1977591;28;20108;-69
2022/09/26 05:03:22;;;;;;;3.72;2.70;;;;;;;9.64;100.00;100164.31;1977562;28;20029;-69